Time;durP1;ratioP1;P1;durP2;ratioP2;P2;SDS_P1;SDS_P2;PMS_P1;PMS_P2;Temp;Humidity;BMP_temperature;BMP_pressure;BME280_temperature;BME280_humidity;BME280_pressure;Samples;Min_cycle;Max_cycle;Signal;HPM_P1;HPM_P2
2023/10/03 00:01:27;;;;;;;23.67;15.13;;;18.80;99.90;;;;;;10461419;28;20229;-82
2023/10/03 00:06:33;;;;;;;29.43;16.00;;;18.80;99.90;;;;;;10466646;28;20194;-82
2023/10/03 00:11:35;;;;;;;24.63;14.33;;;18.80;99.90;;;;;;10468653;28;20214;-82
2023/10/03 00:16:38;;;;;;;25.87;14.50;;;18.80;99.90;;;;;;10458730;28;20194;-82
2023/10/03 00:21:43;;;;;;;26.07;15.00;;;18.80;99.90;;;;;;10459222;28;20718;-82
2023/10/03 00:26:45;;;;;;;22.10;14.20;;;18.80;99.90;;;;;;10460886;28;20630;-82
2023/10/03 00:31:49;;;;;;;25.47;14.00;;;18.80;99.90;;;;;;10460289;28;20217;-82
2023/10/03 00:36:54;;;;;;;25.10;15.20;;;18.80;99.90;;;;;;10442856;28;20701;-82
2023/10/03 00:41:56;;;;;;;22.83;14.40;;;18.80;99.90;;;;;;10457373;28;20225;-82
2023/10/03 00:46:59;;;;;;;26.07;16.13;;;18.80;99.90;;;;;;10460234;28;20775;-82
2023/10/03 00:52:05;;;;;;;24.93;15.00;;;18.80;99.90;;;;;;10456580;28;20215;-82
2023/10/03 00:57:08;;;;;;;24.83;14.60;;;18.70;99.90;;;;;;10458091;28;20198;-82
2023/10/03 01:02:11;;;;;;;26.30;14.80;;;18.70;99.90;;;;;;10460911;28;20263;-82
2023/10/03 01:07:14;;;;;;;22.43;15.20;;;18.70;99.90;;;;;;10463112;28;20243;-82
2023/10/03 01:12:18;;;;;;;23.00;13.80;;;18.70;99.90;;;;;;10458047;28;20614;-82
2023/10/03 01:17:22;;;;;;;24.70;15.43;;;18.70;99.90;;;;;;10459134;28;20279;-82
2023/10/03 01:22:27;;;;;;;21.57;13.37;;;18.70;99.90;;;;;;10458703;28;20687;-82
2023/10/03 01:27:30;;;;;;;18.53;12.70;;;18.70;99.90;;;;;;10458200;28;20197;-82
2023/10/03 01:32:35;;;;;;;25.67;14.57;;;18.70;99.90;;;;;;10459100;28;20221;-82
2023/10/03 01:37:39;;;;;;;24.63;14.83;;;18.70;99.90;;;;;;10460502;28;20202;-82
2023/10/03 01:42:46;;;;;;;25.10;14.13;;;18.70;99.90;;;;;;10457554;28;20224;-82
2023/10/03 01:47:50;;;;;;;21.73;13.20;;;18.70;99.90;;;;;;10460009;28;20202;-82
2023/10/03 01:52:52;;;;;;;21.97;12.90;;;18.70;99.90;;;;;;10476570;28;20214;-82
2023/10/03 01:57:56;;;;;;;25.10;13.20;;;18.70;99.90;;;;;;10482115;28;20205;-82
2023/10/03 02:03:00;;;;;;;19.40;12.67;;;18.70;99.90;;;;;;10481641;28;20221;-82
2023/10/03 02:08:07;;;;;;;43.57;14.23;;;18.60;99.90;;;;;;10485844;28;20197;-82
2023/10/03 02:13:14;;;;;;;23.00;13.40;;;18.70;99.90;;;;;;10477291;28;20568;-82
2023/10/03 02:18:18;;;;;;;21.63;13.43;;;18.70;99.90;;;;;;10495927;28;20307;-82
2023/10/03 02:23:21;;;;;;;22.30;13.30;;;18.70;99.90;;;;;;10494833;28;20324;-82
2023/10/03 02:28:26;;;;;;;23.80;14.33;;;18.70;99.90;;;;;;10495105;28;20201;-81
2023/10/03 02:33:28;;;;;;;19.97;13.50;;;18.60;99.90;;;;;;10475474;28;20587;-83
2023/10/03 02:38:35;;;;;;;19.83;14.03;;;18.70;99.90;;;;;;10478201;28;20662;-83
2023/10/03 02:43:42;;;;;;;21.10;13.60;;;18.60;99.90;;;;;;10486479;28;20225;-81
2023/10/03 02:48:45;;;;;;;24.67;13.90;;;18.60;99.90;;;;;;10490474;28;20256;-84
2023/10/03 02:53:47;;;;;;;21.87;14.30;;;18.60;99.90;;;;;;10484971;28;20226;-84
2023/10/03 02:58:51;;;;;;;25.87;15.50;;;18.50;99.90;;;;;;10481421;28;20227;-82
2023/10/03 03:03:54;;;;;;;23.67;14.13;;;18.50;99.90;;;;;;10489227;28;20598;-84
2023/10/03 03:08:56;;;;;;;23.33;14.77;;;18.50;99.90;;;;;;10493153;28;20230;-82
2023/10/03 03:14:00;;;;;;;23.87;13.43;;;18.50;99.90;;;;;;10474451;28;20206;-79
2023/10/03 03:19:05;;;;;;;22.97;13.53;;;18.50;99.90;;;;;;10493421;28;20567;-79
2023/10/03 03:24:09;;;;;;;24.57;14.37;;;18.50;99.90;;;;;;10474880;28;20232;-78
2023/10/03 03:29:20;;;;;;;20.20;12.10;;;18.60;99.90;;;;;;10492803;28;20696;-82
2023/10/03 03:34:22;;;;;;;16.33;10.87;;;18.70;99.90;;;;;;10492880;28;20213;-84
2023/10/03 03:39:26;;;;;;;15.23;10.00;;;18.80;99.90;;;;;;10477508;28;20209;-84
2023/10/03 03:44:30;;;;;;;14.17;8.73;;;18.90;99.60;;;;;;10478335;28;20221;-84
2023/10/03 03:49:32;;;;;;;15.13;10.40;;;19.10;99.00;;;;;;10478149;28;20208;-84
2023/10/03 03:54:34;;;;;;;17.47;10.67;;;19.20;98.70;;;;;;10506523;28;20198;-83
2023/10/03 03:59:38;;;;;;;22.67;12.30;;;19.30;98.50;;;;;;10491907;28;20248;-84
2023/10/03 04:04:40;;;;;;;19.97;12.20;;;19.30;99.10;;;;;;10463094;28;20261;-83
2023/10/03 04:09:42;;;;;;;20.33;11.97;;;19.30;99.50;;;;;;10486607;28;20217;-84
2023/10/03 04:14:46;;;;;;;18.90;11.57;;;19.30;99.50;;;;;;10484406;28;20300;-84
2023/10/03 04:19:49;;;;;;;14.00;9.73;;;19.20;99.60;;;;;;10487398;28;20254;-84
2023/10/03 04:24:51;;;;;;;11.10;7.30;;;19.20;99.00;;;;;;10482947;28;20261;-83
2023/10/03 04:29:54;;;;;;;14.80;8.80;;;19.20;98.40;;;;;;10477549;28;20244;-84
2023/10/03 04:34:56;;;;;;;11.53;7.90;;;19.30;97.60;;;;;;10483011;28;20208;-83
2023/10/03 04:39:58;;;;;;;12.97;7.70;;;19.40;97.20;;;;;;10474108;28;20230;-84
2023/10/03 04:45:05;;;;;;;12.13;8.00;;;19.50;96.40;;;;;;10475601;28;20281;-83
2023/10/03 04:50:08;;;;;;;11.00;6.87;;;19.70;95.80;;;;;;10476769;28;20375;-83
2023/10/03 04:55:10;;;;;;;10.97;7.47;;;19.90;95.50;;;;;;10480684;28;20244;-83
2023/10/03 05:00:15;;;;;;;9.70;6.70;;;20.00;95.40;;;;;;10486218;28;20317;-84
2023/10/03 05:05:20;;;;;;;9.77;7.40;;;20.10;95.10;;;;;;10487530;28;20284;-84
2023/10/03 05:10:23;;;;;;;10.40;7.40;;;20.20;94.70;;;;;;10487839;28;20218;-84
2023/10/03 05:15:27;;;;;;;9.30;6.43;;;20.30;94.70;;;;;;10488470;28;20284;-84
2023/10/03 05:20:37;;;;;;;12.73;6.70;;;20.30;94.50;;;;;;10478172;28;20744;-84
2023/10/03 05:25:42;;;;;;;11.33;7.30;;;20.40;94.40;;;;;;10490619;28;20276;-84
2023/10/03 05:30:46;;;;;;;13.50;7.63;;;20.40;94.40;;;;;;10491516;28;20220;-84
2023/10/03 05:35:48;;;;;;;14.10;7.47;;;20.40;94.40;;;;;;10473053;28;20202;-84
2023/10/03 05:40:51;;;;;;;11.83;7.83;;;20.40;94.70;;;;;;10476277;28;20938;-84
2023/10/03 05:45:54;;;;;;;10.30;6.57;;;20.40;94.60;;;;;;10476953;28;20300;-84
2023/10/03 05:50:56;;;;;;;11.00;6.90;;;20.40;94.30;;;;;;10486714;28;20625;-83
2023/10/03 05:55:58;;;;;;;10.60;6.93;;;20.40;94.40;;;;;;10495172;28;20281;-84
2023/10/03 06:01:02;;;;;;;11.10;7.40;;;20.50;94.30;;;;;;10493134;28;20590;-84
2023/10/03 06:06:04;;;;;;;12.70;7.30;;;20.50;94.20;;;;;;10511486;28;20194;-84
2023/10/03 06:11:06;;;;;;;11.33;6.87;;;20.50;94.40;;;;;;10471313;28;20218;-84
2023/10/03 06:16:12;;;;;;;11.20;7.50;;;20.50;94.10;;;;;;10499436;28;20217;-84
2023/10/03 06:21:14;;;;;;;9.83;6.80;;;20.60;93.90;;;;;;10501751;28;20222;-83
2023/10/03 06:26:17;;;;;;;9.10;6.23;;;20.60;94.00;;;;;;10501820;28;20206;-84
2023/10/03 06:31:21;;;;;;;8.60;6.90;;;20.60;94.30;;;;;;10489518;28;20221;-84
2023/10/03 06:36:23;;;;;;;9.73;6.80;;;20.50;94.00;;;;;;10499035;28;20206;-82
2023/10/03 06:41:26;;;;;;;7.83;6.33;;;20.50;93.90;;;;;;10498302;28;20613;-83
2023/10/03 06:46:29;;;;;;;9.60;6.90;;;20.50;94.20;;;;;;10516070;28;20202;-83
2023/10/03 06:51:31;;;;;;;7.87;6.23;;;20.50;94.50;;;;;;10485811;28;20210;-82
2023/10/03 06:56:34;;;;;;;10.20;7.40;;;20.40;94.20;;;;;;10459121;28;20198;-81
2023/10/03 07:01:37;;;;;;;8.60;6.63;;;20.50;94.40;;;;;;10472843;28;20319;-81
2023/10/03 07:06:39;;;;;;;11.53;7.40;;;20.60;94.20;;;;;;10493582;28;20296;-81
2023/10/03 07:11:42;;;;;;;9.73;6.00;;;20.70;94.40;;;;;;10486417;28;20206;-82
2023/10/03 07:16:46;;;;;;;9.50;7.20;;;20.80;94.60;;;;;;10492283;28;20272;-81
2023/10/03 07:21:51;;;;;;;11.00;8.00;;;20.90;94.60;;;;;;10492952;28;20217;-82
2023/10/03 07:26:53;;;;;;;8.60;7.13;;;20.90;94.60;;;;;;10492541;28;20202;-81
2023/10/03 07:31:56;;;;;;;9.73;6.20;;;20.90;94.40;;;;;;10487157;28;20287;-82
2023/10/03 07:36:59;;;;;;;9.13;6.57;;;21.10;94.60;;;;;;10471386;28;20289;-82
2023/10/03 07:42:01;;;;;;;7.50;6.47;;;21.10;94.50;;;;;;10492799;28;20717;-82
2023/10/03 07:47:05;;;;;;;6.30;5.57;;;21.20;94.70;;;;;;10486492;28;20198;-82
2023/10/03 07:52:07;;;;;;;7.60;6.43;;;21.20;94.30;;;;;;10482017;28;20293;-82
2023/10/03 07:57:09;;;;;;;8.87;6.10;;;21.40;94.80;;;;;;10478247;28;20287;-82
2023/10/03 08:02:13;;;;;;;8.63;6.30;;;21.40;94.20;;;;;;10485886;28;20226;-82
2023/10/03 08:07:22;;;;;;;6.87;5.83;;;21.50;94.40;;;;;;10470415;28;20203;-82
2023/10/03 08:12:26;;;;;;;7.57;6.10;;;21.70;94.30;;;;;;10512019;28;20305;-81
2023/10/03 08:17:32;;;;;;;7.47;6.00;;;21.80;93.60;;;;;;10499900;28;20216;-80
2023/10/03 08:22:41;;;;;;;8.33;5.53;;;22.00;93.30;;;;;;10477780;28;20460;-81
2023/10/03 08:27:46;;;;;;;5.83;5.23;;;22.30;92.50;;;;;;10469537;28;20209;-81
2023/10/03 08:32:51;;;;;;;7.57;6.17;;;22.60;92.80;;;;;;10470067;28;20241;-81
2023/10/03 08:37:57;;;;;;;7.80;6.80;;;22.90;92.80;;;;;;10466803;28;20273;-81
2023/10/03 08:43:02;;;;;;;8.70;5.80;;;23.10;92.80;;;;;;10448125;28;20316;-81
2023/10/03 08:48:07;;;;;;;6.27;5.63;;;23.40;92.10;;;;;;10460845;28;20824;-81
2023/10/03 08:53:16;;;;;;;7.87;5.60;;;23.60;92.20;;;;;;10458622;28;20229;-81
2023/10/03 08:58:19;;;;;;;6.37;5.50;;;23.80;92.90;;;;;;10457875;28;20205;-81
2023/10/03 09:03:23;;;;;;;6.70;4.50;;;23.80;92.40;;;;;;10463575;28;20251;-81
2023/10/03 09:08:26;;;;;;;7.03;5.90;;;23.80;92.50;;;;;;10465789;28;20198;-82
2023/10/03 09:13:29;;;;;;;7.20;6.20;;;23.80;92.60;;;;;;10464800;28;20213;-82
2023/10/03 09:18:40;;;;;;;5.37;4.83;;;23.90;92.50;;;;;;10465695;28;20339;-80
2023/10/03 09:23:59;;;;;;;9.47;5.73;;;23.90;93.30;;;;;;10465106;28;20230;-81
2023/10/03 09:29:07;;;;;;;6.27;5.63;;;24.00;92.00;;;;;;10465583;28;20284;-80
2023/10/03 09:34:13;;;;;;;6.77;5.40;;;24.10;92.30;;;;;;10455621;28;20252;-79
2023/10/03 09:39:21;;;;;;;6.03;5.43;;;24.10;92.50;;;;;;10457894;28;20228;-80
2023/10/03 09:44:30;;;;;;;8.40;6.00;;;24.30;92.80;;;;;;10451471;28;20221;-80
2023/10/03 09:49:38;;;;;;;6.10;5.13;;;24.40;93.20;;;;;;10455005;28;20666;-82
2023/10/03 09:54:40;;;;;;;6.73;5.43;;;24.40;93.10;;;;;;10450956;28;20263;-82
2023/10/03 09:59:45;;;;;;;5.87;5.13;;;24.30;92.90;;;;;;10475908;28;20275;-82
2023/10/03 10:04:51;;;;;;;7.97;6.20;;;24.20;93.40;;;;;;10471811;28;20214;-82
2023/10/03 10:10:07;;;;;;;6.23;5.63;;;24.20;93.50;;;;;;10487101;28;20578;-82
2023/10/03 10:15:17;;;;;;;6.90;6.27;;;24.20;93.40;;;;;;10456398;28;20234;-82
2023/10/03 10:20:27;;;;;;;6.30;5.67;;;24.40;93.60;;;;;;10478366;28;20222;-82
2023/10/03 10:25:30;;;;;;;7.07;5.90;;;24.50;93.20;;;;;;10466215;28;20224;-83
2023/10/03 10:30:33;;;;;;;8.07;5.00;;;24.70;93.00;;;;;;10477899;28;20217;-83
2023/10/03 10:35:54;;;;;;;6.00;5.17;;;24.90;93.00;;;;;;10472924;28;20221;-83
2023/10/03 10:41:26;;;;;;;6.23;5.63;;;25.00;92.60;;;;;;10474084;28;20235;-83
2023/10/03 10:46:33;;;;;;;5.90;4.60;;;25.10;92.50;;;;;;10474335;28;20248;-80
2023/10/03 10:51:37;;;;;;;5.70;5.10;;;25.00;92.90;;;;;;10487233;28;20630;-81
2023/10/03 10:56:39;;;;;;;6.47;5.43;;;25.00;92.90;;;;;;10472954;28;20619;-82
2023/10/03 11:01:42;;;;;;;7.80;5.37;;;25.00;93.20;;;;;;10462429;28;20309;-80
2023/10/03 11:06:50;;;;;;;6.27;5.13;;;25.20;93.30;;;;;;10462115;28;20230;-83
2023/10/03 11:11:52;;;;;;;7.10;6.03;;;25.40;93.10;;;;;;10464225;28;20265;-83
2023/10/03 11:16:55;;;;;;;7.43;6.73;;;25.50;92.80;;;;;;10464002;28;20262;-83
2023/10/03 11:21:58;;;;;;;9.90;5.50;;;25.70;92.70;;;;;;10464664;28;20226;-83
2023/10/03 11:27:01;;;;;;;6.43;5.33;;;25.90;92.60;;;;;;10460463;28;20202;-83
2023/10/03 11:32:03;;;;;;;6.47;5.97;;;25.90;92.60;;;;;;10463991;28;20573;-83
2023/10/03 11:37:07;;;;;;;6.67;5.20;;;25.90;92.40;;;;;;10462002;28;20198;-83
2023/10/03 11:42:23;;;;;;;5.63;5.13;;;25.90;92.10;;;;;;10463661;28;20226;-83
2023/10/03 11:47:25;;;;;;;7.00;5.40;;;25.90;91.80;;;;;;10463363;28;20201;-83
2023/10/03 11:52:29;;;;;;;10.00;5.90;;;25.90;91.80;;;;;;10463377;28;20542;-83
2023/10/03 11:57:31;;;;;;;5.87;4.93;;;25.90;91.70;;;;;;10463480;28;20277;-82
2023/10/03 12:02:33;;;;;;;5.40;5.00;;;25.90;91.90;;;;;;10464748;28;20241;-82
2023/10/03 12:07:36;;;;;;;7.37;5.77;;;25.90;91.80;;;;;;10473384;28;20284;-83
2023/10/03 12:12:39;;;;;;;6.33;5.47;;;25.80;91.90;;;;;;10476855;28;20218;-83
2023/10/03 12:17:42;;;;;;;7.13;6.40;;;25.80;92.00;;;;;;10463588;28;20233;-83
2023/10/03 12:22:51;;;;;;;6.30;5.70;;;25.80;92.20;;;;;;10461515;28;20241;-83
2023/10/03 12:27:54;;;;;;;6.23;5.63;;;25.70;92.40;;;;;;10465334;28;20199;-83
2023/10/03 12:32:56;;;;;;;7.93;5.80;;;25.70;91.90;;;;;;10460312;28;20222;-83
2023/10/03 12:38:00;;;;;;;11.40;6.03;;;25.70;92.20;;;;;;10457758;28;20280;-83
2023/10/03 12:43:02;;;;;;;6.20;5.60;;;25.70;92.50;;;;;;10457043;28;20730;-80
2023/10/03 12:48:05;;;;;;;6.60;6.00;;;25.70;92.20;;;;;;10459251;28;20225;-83
2023/10/03 12:53:10;;;;;;;6.87;6.27;;;25.80;91.80;;;;;;10461342;28;20711;-83
2023/10/03 12:58:18;;;;;;;10.00;6.63;;;25.80;91.80;;;;;;10439420;28;20266;-82
2023/10/03 13:03:20;;;;;;;8.30;6.77;;;25.70;91.60;;;;;;10457198;28;20722;-83
2023/10/03 13:08:25;;;;;;;7.13;5.90;;;25.70;92.20;;;;;;10461618;28;20210;-83
2023/10/03 13:13:28;;;;;;;8.53;6.90;;;25.60;92.30;;;;;;10459911;28;20252;-83
2023/10/03 13:18:31;;;;;;;6.73;6.13;;;25.40;92.30;;;;;;10460052;28;20209;-83
2023/10/03 13:23:34;;;;;;;6.80;5.40;;;25.30;92.80;;;;;;10462027;28;20232;-82
2023/10/03 13:28:36;;;;;;;7.97;6.70;;;25.20;93.00;;;;;;10461239;28;20202;-83
2023/10/03 13:33:39;;;;;;;7.93;6.63;;;25.20;93.00;;;;;;10460391;28;20225;-83
2023/10/03 13:38:43;;;;;;;8.07;7.23;;;25.00;93.20;;;;;;10460026;28;20198;-83
2023/10/03 13:43:45;;;;;;;7.90;6.80;;;24.80;93.50;;;;;;10459197;28;20303;-83
2023/10/03 13:48:50;;;;;;;7.17;6.47;;;24.70;94.00;;;;;;10461809;28;20209;-83
2023/10/03 13:53:53;;;;;;;16.43;6.87;;;24.70;93.80;;;;;;10460362;28;20248;-82
2023/10/03 13:58:56;;;;;;;9.37;7.03;;;24.70;94.20;;;;;;10468549;28;20285;-83
2023/10/03 14:03:58;;;;;;;7.30;6.50;;;24.60;94.00;;;;;;10471919;28;20238;-83
2023/10/03 14:09:05;;;;;;;10.53;6.80;;;24.40;94.30;;;;;;10466351;28;20628;-82
2023/10/03 14:14:07;;;;;;;6.67;5.90;;;24.30;94.30;;;;;;10469963;28;20210;-82
2023/10/03 14:19:10;;;;;;;9.60;6.97;;;24.20;94.40;;;;;;10473827;28;20210;-82
2023/10/03 14:24:13;;;;;;;7.23;5.60;;;24.20;93.40;;;;;;10486103;28;20222;-83
2023/10/03 14:29:16;;;;;;;7.37;5.50;;;24.30;92.60;;;;;;10479331;28;20228;-83
2023/10/03 14:34:20;;;;;;;6.93;5.53;;;24.30;92.80;;;;;;10481301;28;20221;-83
2023/10/03 14:39:24;;;;;;;5.60;4.93;;;24.30;92.90;;;;;;10455250;28;20229;-83
2023/10/03 14:44:27;;;;;;;5.17;4.57;;;24.30;92.70;;;;;;10475795;28;20228;-82
2023/10/03 14:49:29;;;;;;;9.00;4.30;;;24.30;92.80;;;;;;10494840;28;20202;-82
2023/10/03 14:54:33;;;;;;;6.87;4.63;;;24.20;92.50;;;;;;10494356;28;20343;-82
2023/10/03 14:59:36;;;;;;;5.20;4.70;;;24.20;92.20;;;;;;10493522;28;20245;-82
2023/10/03 15:04:38;;;;;;;6.80;5.20;;;24.10;92.60;;;;;;10490827;28;20221;-83
2023/10/03 15:09:41;;;;;;;4.87;4.00;;;24.10;92.70;;;;;;10479511;28;20739;-83
2023/10/03 15:14:44;;;;;;;5.00;4.50;;;24.10;93.00;;;;;;10483579;28;20241;-81
2023/10/03 15:19:46;;;;;;;7.90;5.53;;;24.00;93.20;;;;;;10501075;28;20274;-82
2023/10/03 15:24:50;;;;;;;6.40;4.77;;;24.00;93.20;;;;;;10476192;28;20542;-80
2023/10/03 15:29:52;;;;;;;4.87;4.47;;;24.00;93.30;;;;;;10492629;28;20213;-80
2023/10/03 15:34:54;;;;;;;4.60;4.13;;;24.00;94.00;;;;;;10479541;28;20329;-80
2023/10/03 15:39:58;;;;;;;4.60;4.10;;;23.90;93.70;;;;;;10494087;28;20229;-80
2023/10/03 15:45:04;;;;;;;4.73;4.30;;;23.90;93.60;;;;;;10469137;28;20256;-80
2023/10/03 15:50:07;;;;;;;4.00;3.40;;;23.70;94.10;;;;;;10479527;28;20775;-81
2023/10/03 15:55:11;;;;;;;4.93;4.43;;;23.50;98.40;;;;;;10477269;28;20199;-81
2023/10/03 16:00:14;;;;;;;8.10;7.60;;;22.90;99.90;;;;;;10472509;28;20234;-81
2023/10/03 16:05:18;;;;;;;12.57;11.70;;;22.30;99.90;;;;;;10488147;28;20256;-81
2023/10/03 16:10:23;;;;;;;11.97;11.27;;;21.50;99.90;;;;;;10488565;28;20611;-81
2023/10/03 16:15:25;;;;;;;11.80;11.10;;;20.80;99.90;;;;;;10483382;28;20198;-79
2023/10/03 16:20:28;;;;;;;7.40;6.87;;;20.10;99.90;;;;;;10481301;28;20260;-79
2023/10/03 16:25:32;;;;;;;6.40;6.00;;;19.50;99.90;;;;;;10477745;28;20253;-81
2023/10/03 16:30:34;;;;;;;9.20;8.70;;;19.10;99.90;;;;;;10486694;28;20280;-80
2023/10/03 16:35:36;;;;;;;8.60;8.00;;;18.90;99.90;;;;;;10463611;28;20277;-80
2023/10/03 16:40:40;;;;;;;6.43;6.03;;;18.80;99.90;;;;;;10470748;28;20229;-80
2023/10/03 16:45:46;;;;;;;7.63;7.23;;;18.70;99.90;;;;;;10471373;28;20225;-80
2023/10/03 16:50:49;;;;;;;7.20;6.90;;;18.70;99.90;;;;;;10481159;28;20217;-78
2023/10/03 16:55:52;;;;;;;5.67;5.27;;;18.60;99.90;;;;;;10454821;28;20201;-79
2023/10/03 17:00:54;;;;;;;8.00;7.50;;;18.60;99.90;;;;;;10454626;28;20225;-81
2023/10/03 17:05:57;;;;;;;7.47;6.87;;;18.70;99.90;;;;;;10491695;28;20225;-81
2023/10/03 17:11:00;;;;;;;6.90;6.60;;;18.70;99.90;;;;;;10477161;28;20221;-78
2023/10/03 17:16:02;;;;;;;6.27;5.97;;;18.70;99.90;;;;;;10480646;28;20221;-80
2023/10/03 17:21:07;;;;;;;6.20;5.80;;;18.70;99.90;;;;;;10485368;28;20249;-81
2023/10/03 17:26:15;;;;;;;6.13;5.73;;;18.70;99.90;;;;;;10487913;28;20225;-80
2023/10/03 17:31:17;;;;;;;4.90;4.60;;;18.60;99.90;;;;;;10456934;28;20229;-80
2023/10/03 17:36:21;;;;;;;5.13;4.83;;;18.60;99.90;;;;;;10467395;28;20197;-80
2023/10/03 17:41:25;;;;;;;5.30;5.00;;;18.50;99.90;;;;;;10491776;28;20226;-79
2023/10/03 17:46:27;;;;;;;5.33;5.03;;;18.50;99.90;;;;;;10486620;28;20562;-80
2023/10/03 17:51:30;;;;;;;4.53;4.30;;;18.50;99.90;;;;;;10484042;28;20942;-80
2023/10/03 17:56:33;;;;;;;5.03;4.73;;;18.40;99.90;;;;;;10498609;28;20239;-80
2023/10/03 18:01:35;;;;;;;6.07;5.67;;;18.30;99.90;;;;;;10484122;28;20298;-80
2023/10/03 18:06:37;;;;;;;4.43;4.13;;;18.30;99.90;;;;;;10490757;28;20262;-79
2023/10/03 18:11:41;;;;;;;4.50;4.30;;;18.30;99.90;;;;;;10473047;28;20218;-80
2023/10/03 18:16:43;;;;;;;4.03;3.83;;;18.20;99.90;;;;;;10467225;28;20209;-81
2023/10/03 18:21:46;;;;;;;4.50;4.30;;;18.20;99.90;;;;;;10472868;28;20234;-81
2023/10/03 18:26:49;;;;;;;5.50;5.10;;;18.10;99.90;;;;;;10469859;28;20225;-81
2023/10/03 18:31:51;;;;;;;3.97;3.67;;;18.10;99.90;;;;;;10467094;28;20224;-80
2023/10/03 18:36:53;;;;;;;4.47;4.17;;;18.00;99.90;;;;;;10465211;28;20198;-79
2023/10/03 18:41:57;;;;;;;3.40;3.20;;;17.90;99.90;;;;;;10456308;28;20685;-80
2023/10/03 18:46:59;;;;;;;4.13;3.73;;;17.90;99.90;;;;;;10473881;28;20260;-80
2023/10/03 18:52:02;;;;;;;3.60;3.30;;;17.90;99.90;;;;;;10470575;28;20218;-79
2023/10/03 18:57:05;;;;;;;3.60;3.40;;;17.70;99.90;;;;;;10481537;28;20198;-80
2023/10/03 19:02:08;;;;;;;6.17;3.67;;;17.70;99.90;;;;;;10464075;28;20222;-78
2023/10/03 19:07:11;;;;;;;3.23;3.03;;;17.70;99.90;;;;;;10463829;28;20283;-80
2023/10/03 19:12:15;;;;;;;11.07;8.40;;;17.70;99.90;;;;;;10462643;28;20257;-80
2023/10/03 19:17:17;;;;;;;5.03;4.53;;;17.60;99.90;;;;;;10461334;28;20221;-79
2023/10/03 19:22:20;;;;;;;3.83;3.50;;;17.60;99.90;;;;;;10446117;28;20267;-78
2023/10/03 19:27:23;;;;;;;3.40;3.10;;;17.50;99.90;;;;;;10471006;28;20573;-81
2023/10/03 19:32:26;;;;;;;3.83;3.53;;;17.50;99.90;;;;;;10474436;28;20228;-79
2023/10/03 19:37:28;;;;;;;3.37;3.13;;;17.50;99.90;;;;;;10479304;28;20205;-81
2023/10/03 19:42:31;;;;;;;4.80;3.90;;;17.40;99.90;;;;;;10478101;28;20233;-80
2023/10/03 19:47:34;;;;;;;4.10;3.70;;;17.40;99.90;;;;;;10449685;28;20221;-80
2023/10/03 19:52:37;;;;;;;3.30;3.03;;;17.40;99.90;;;;;;10468699;28;20661;-80
2023/10/03 19:57:43;;;;;;;3.33;3.03;;;17.30;99.90;;;;;;10470501;28;20289;-80
2023/10/03 20:02:45;;;;;;;3.30;2.60;;;17.20;99.90;;;;;;10475635;28;20221;-79
2023/10/03 20:07:47;;;;;;;3.03;2.80;;;17.20;99.90;;;;;;10487763;28;20198;-80
2023/10/03 20:12:51;;;;;;;3.27;2.70;;;17.20;99.90;;;;;;10471458;28;20606;-79
2023/10/03 20:17:54;;;;;;;2.83;2.63;;;17.20;99.90;;;;;;10465937;28;20206;-81
2023/10/03 20:22:56;;;;;;;3.37;2.73;;;17.20;99.90;;;;;;10468899;28;20223;-81
2023/10/03 20:28:00;;;;;;;2.90;2.70;;;17.20;99.90;;;;;;10482612;28;20197;-79
2023/10/03 20:33:03;;;;;;;2.90;2.70;;;17.10;99.90;;;;;;10473513;28;20217;-79
2023/10/03 20:38:06;;;;;;;4.60;4.20;;;17.10;99.90;;;;;;10472617;28;20213;-81
2023/10/03 20:43:09;;;;;;;3.80;2.87;;;17.10;99.90;;;;;;10464423;28;20560;-80
2023/10/03 20:48:12;;;;;;;2.80;2.60;;;17.10;99.90;;;;;;10451820;28;20627;-79
2023/10/03 20:53:14;;;;;;;3.40;3.10;;;17.00;99.90;;;;;;10459675;28;20226;-79
2023/10/03 20:58:18;;;;;;;3.77;3.17;;;17.00;99.90;;;;;;10470629;28;20229;-81
2023/10/03 21:03:20;;;;;;;3.90;3.20;;;16.90;99.90;;;;;;10462353;28;20237;-80
2023/10/03 21:08:23;;;;;;;3.90;2.97;;;16.90;99.90;;;;;;10455909;28;20563;-80
2023/10/03 21:13:26;;;;;;;3.13;2.80;;;16.80;99.90;;;;;;10451565;28;20298;-80
2023/10/03 21:18:28;;;;;;;3.43;3.07;;;16.80;99.90;;;;;;10449955;28;20213;-80
2023/10/03 21:23:31;;;;;;;3.10;2.90;;;16.70;99.90;;;;;;10461566;28;20252;-80
2023/10/03 21:28:35;;;;;;;2.77;2.53;;;16.70;99.90;;;;;;10462287;28;20828;-79
2023/10/03 21:33:37;;;;;;;4.10;3.00;;;16.70;99.90;;;;;;10462646;28;20209;-80
2023/10/03 21:38:39;;;;;;;3.87;2.80;;;16.70;99.90;;;;;;10457554;28;20221;-78
2023/10/03 21:43:43;;;;;;;6.40;2.90;;;16.70;99.90;;;;;;10458463;28;20268;-80
2023/10/03 21:48:45;;;;;;;4.80;2.90;;;16.70;99.90;;;;;;10459420;28;20202;-81
2023/10/03 21:53:47;;;;;;;2.73;2.53;;;16.70;99.90;;;;;;10460509;28;20280;-81
2023/10/03 21:58:52;;;;;;;6.00;3.30;;;16.70;99.90;;;;;;10460619;28;20289;-81
2023/10/03 22:03:54;;;;;;;4.23;3.13;;;16.70;99.90;;;;;;10456786;28;20741;-81
2023/10/03 22:08:57;;;;;;;3.07;2.70;;;16.80;99.90;;;;;;10464126;28;20200;-80
2023/10/03 22:14:00;;;;;;;7.27;3.07;;;16.70;99.90;;;;;;10466135;28;20248;-80
2023/10/03 22:19:03;;;;;;;3.77;2.70;;;16.70;99.90;;;;;;10467519;28;20566;-80
2023/10/03 22:24:05;;;;;;;2.57;2.20;;;16.70;99.90;;;;;;10473426;28;20225;-78
2023/10/03 22:29:09;;;;;;;3.90;2.73;;;16.60;99.90;;;;;;10467514;28;20212;-80
2023/10/03 22:34:12;;;;;;;3.00;2.70;;;16.60;99.90;;;;;;10460365;28;20218;-78
2023/10/03 22:39:16;;;;;;;2.90;2.70;;;16.60;99.90;;;;;;10487423;28;20238;-80
2023/10/03 22:44:19;;;;;;;2.80;2.60;;;16.60;99.90;;;;;;10481741;28;20218;-80
2023/10/03 22:49:22;;;;;;;3.40;3.10;;;16.60;99.90;;;;;;10484359;28;20748;-80
2023/10/03 22:54:24;;;;;;;3.63;3.20;;;16.60;99.90;;;;;;10484751;28;20206;-79
2023/10/03 22:59:29;;;;;;;2.90;2.70;;;16.60;99.90;;;;;;10478539;28;20267;-80
2023/10/03 23:04:31;;;;;;;3.53;3.23;;;16.50;99.90;;;;;;10468095;28;20225;-80
2023/10/03 23:09:35;;;;;;;4.63;2.97;;;16.50;99.90;;;;;;10460601;28;20681;-80
2023/10/03 23:14:39;;;;;;;3.10;2.80;;;16.50;99.90;;;;;;10459453;28;20633;-80
2023/10/03 23:19:41;;;;;;;2.47;2.33;;;16.40;99.90;;;;;;10461772;28;20695;-80
2023/10/03 23:24:43;;;;;;;4.50;3.00;;;16.40;99.90;;;;;;10460188;28;20615;-80
2023/10/03 23:29:46;;;;;;;3.70;3.20;;;16.30;99.90;;;;;;10460654;28;20221;-80
2023/10/03 23:34:51;;;;;;;4.47;2.80;;;16.20;99.90;;;;;;10445005;28;20214;-80
2023/10/03 23:39:53;;;;;;;3.70;2.90;;;16.10;99.90;;;;;;10462418;28;20221;-79
2023/10/03 23:44:56;;;;;;;3.77;3.37;;;16.10;99.90;;;;;;10460713;28;20210;-80
2023/10/03 23:49:59;;;;;;;3.30;3.00;;;16.00;99.90;;;;;;10462046;28;20218;-80
2023/10/03 23:55:07;;;;;;;3.50;3.20;;;15.90;99.90;;;;;;10461236;28;20484;-80
